createdAt,value
2018-06-14T00:00:39.181Z,11.35
2018-06-14T00:01:39.166Z,11.29
2018-06-14T00:02:39.186Z,11.35
2018-06-14T00:03:39.197Z,11.39
2018-06-14T00:04:39.226Z,11.47
2018-06-14T00:05:39.193Z,11.55
2018-06-14T00:06:39.170Z,11.61
2018-06-14T00:07:39.186Z,11.63
2018-06-14T00:08:39.184Z,11.68
2018-06-14T00:09:39.201Z,11.72
2018-06-14T00:10:39.184Z,11.72
2018-06-14T00:11:39.161Z,11.63
2018-06-14T00:12:39.227Z,11.65
2018-06-14T00:13:39.173Z,11.66
2018-06-14T00:14:39.227Z,11.62
2018-06-14T00:15:39.191Z,11.59
2018-06-14T00:16:39.219Z,11.62
2018-06-14T00:17:39.328Z,11.7
2018-06-14T00:18:39.212Z,11.73
2018-06-14T00:19:39.184Z,11.65
2018-06-14T00:20:39.182Z,11.61
2018-06-14T00:21:39.221Z,11.69
2018-06-14T00:22:39.404Z,11.67
2018-06-14T00:23:39.335Z,11.74
2018-06-14T00:24:39.192Z,11.74
2018-06-14T00:25:39.180Z,11.72
2018-06-14T00:26:39.202Z,11.68
2018-06-14T00:27:39.207Z,11.63
2018-06-14T00:28:39.209Z,11.64
2018-06-14T00:29:39.207Z,11.63
2018-06-14T00:30:39.263Z,11.59
2018-06-14T00:31:39.273Z,11.55
2018-06-14T00:32:39.193Z,11.55
2018-06-14T00:33:39.281Z,11.53
2018-06-14T00:34:39.220Z,11.51
2018-06-14T00:35:39.200Z,11.5
2018-06-14T00:36:39.295Z,11.53
2018-06-14T00:37:39.226Z,11.55
2018-06-14T00:38:39.206Z,11.47
2018-06-14T00:39:39.420Z,11.5
2018-06-14T00:40:39.206Z,11.48
2018-06-14T00:41:39.193Z,11.42
2018-06-14T00:42:39.178Z,11.41
2018-06-14T00:43:39.190Z,11.42
2018-06-14T00:44:39.418Z,11.49
2018-06-14T00:45:39.224Z,11.5
2018-06-14T00:46:39.187Z,11.56
2018-06-14T00:47:39.195Z,11.61
2018-06-14T00:48:39.191Z,11.59
2018-06-14T00:49:39.540Z,11.6
2018-06-14T00:50:39.195Z,11.67
2018-06-14T00:51:39.200Z,11.58
2018-06-14T00:52:39.224Z,11.57
2018-06-14T00:53:39.272Z,11.55
2018-06-14T00:54:39.217Z,11.53
2018-06-14T00:55:39.211Z,11.5
2018-06-14T00:56:39.191Z,11.72
2018-06-14T00:57:39.253Z,11.66
2018-06-14T00:58:39.192Z,11.64
2018-06-14T00:59:39.204Z,11.6
2018-06-14T01:00:39.232Z,11.66
2018-06-14T01:01:39.196Z,11.65
2018-06-14T01:02:39.224Z,11.65
2018-06-14T01:03:39.190Z,11.61
2018-06-14T01:04:39.218Z,11.66
2018-06-14T01:05:39.222Z,11.65
2018-06-14T01:06:39.203Z,11.64
2018-06-14T01:07:39.222Z,11.64
2018-06-14T01:08:39.213Z,11.64
2018-06-14T01:09:39.236Z,11.68
2018-06-14T01:10:39.416Z,11.63
2018-06-14T01:11:39.228Z,11.65
2018-06-14T01:12:39.214Z,11.7
2018-06-14T01:13:39.195Z,11.67
2018-06-14T01:14:39.232Z,11.69
2018-06-14T01:15:39.251Z,11.7
2018-06-14T01:16:39.200Z,11.89
2018-06-14T01:17:39.201Z,11.93
2018-06-14T01:18:39.217Z,11.96
2018-06-14T01:19:39.214Z,11.96
2018-06-14T01:20:39.213Z,11.9
2018-06-14T01:21:39.212Z,11.85
2018-06-14T01:22:39.210Z,11.87
2018-06-14T01:23:39.199Z,11.83
2018-06-14T01:24:39.338Z,11.91
2018-06-14T01:25:39.477Z,11.93
2018-06-14T01:26:39.224Z,11.84
2018-06-14T01:27:39.251Z,12.03
2018-06-14T01:28:39.205Z,11.98
2018-06-14T01:29:39.211Z,11.98
2018-06-14T01:30:39.221Z,12.06
2018-06-14T01:31:39.250Z,12.17
2018-06-14T01:32:39.211Z,12.21
2018-06-14T01:33:39.229Z,12.18
2018-06-14T01:34:39.274Z,12.15
2018-06-14T01:35:39.257Z,12.15
2018-06-14T01:36:39.268Z,12.08
2018-06-14T01:37:39.260Z,12.07
2018-06-14T01:38:39.221Z,12
2018-06-14T01:39:39.224Z,12.01
2018-06-14T01:40:39.430Z,11.97
2018-06-14T01:41:39.579Z,11.96
2018-06-14T01:42:39.239Z,11.94
2018-06-14T01:43:39.256Z,12.01
2018-06-14T01:44:39.219Z,12.03
2018-06-14T01:45:39.283Z,11.99
2018-06-14T01:46:39.204Z,11.84
2018-06-14T01:47:39.225Z,11.84
2018-06-14T01:48:39.296Z,11.89
2018-06-14T01:49:39.277Z,11.88
2018-06-14T01:50:39.251Z,11.87
2018-06-14T01:51:39.280Z,11.88
2018-06-14T01:52:39.251Z,11.96
2018-06-14T01:53:39.254Z,12.02
2018-06-14T01:54:39.249Z,11.91
2018-06-14T01:55:39.259Z,11.91
2018-06-14T01:56:39.236Z,11.87
2018-06-14T01:57:39.246Z,11.89
2018-06-14T01:58:39.253Z,11.99
2018-06-14T01:59:39.241Z,11.97
2018-06-14T02:00:39.240Z,12
2018-06-14T02:01:39.226Z,11.97
2018-06-14T02:02:39.290Z,11.93
2018-06-14T02:03:39.283Z,11.91
2018-06-14T02:04:39.350Z,11.9
2018-06-14T02:05:39.388Z,11.96
2018-06-14T02:06:39.236Z,11.97
2018-06-14T02:07:39.312Z,12.05
2018-06-14T02:08:39.296Z,11.93
2018-06-14T02:09:39.286Z,11.95
2018-06-14T02:10:39.251Z,12.05
2018-06-14T02:11:39.298Z,11.95
2018-06-14T02:12:39.274Z,11.97
2018-06-14T02:13:39.265Z,11.95
2018-06-14T02:14:39.254Z,11.91
2018-06-14T02:15:39.317Z,11.92
2018-06-14T02:16:39.309Z,11.84
2018-06-14T02:17:39.295Z,11.77
2018-06-14T02:18:39.232Z,11.79
2018-06-14T02:19:39.252Z,11.81
2018-06-14T02:20:39.245Z,11.85
2018-06-14T02:21:39.275Z,11.77
2018-06-14T02:22:39.256Z,11.86
2018-06-14T02:23:39.244Z,11.85
2018-06-14T02:24:39.243Z,11.78
2018-06-14T02:25:39.280Z,11.82
2018-06-14T02:26:39.236Z,11.96
2018-06-14T02:27:39.264Z,11.83
2018-06-14T02:28:39.282Z,11.9
2018-06-14T02:29:39.257Z,11.79
2018-06-14T02:30:39.271Z,11.87
2018-06-14T02:31:39.266Z,11.8
2018-06-14T02:32:39.276Z,11.78
2018-06-14T02:33:39.250Z,11.8
2018-06-14T02:34:39.248Z,11.81
2018-06-14T02:35:39.263Z,11.82
2018-06-14T02:36:39.280Z,11.91
2018-06-14T02:37:39.312Z,11.97
2018-06-14T02:38:39.428Z,11.96
2018-06-14T02:39:39.274Z,11.99
2018-06-14T02:40:39.269Z,11.96
2018-06-14T02:41:39.282Z,11.94
2018-06-14T02:42:39.315Z,12.04
2018-06-14T02:43:39.249Z,11.89
2018-06-14T02:44:39.286Z,11.9
2018-06-14T02:45:39.412Z,11.95
2018-06-14T02:46:39.298Z,12
2018-06-14T02:47:39.279Z,11.9
2018-06-14T02:48:39.270Z,12
2018-06-14T02:49:39.260Z,12
2018-06-14T02:50:39.244Z,12.05
2018-06-14T02:51:39.291Z,12.04
2018-06-14T02:52:39.381Z,12.04
2018-06-14T02:53:39.308Z,12.02
2018-06-14T02:54:39.420Z,11.99
2018-06-14T02:55:39.315Z,11.91
2018-06-14T02:56:39.307Z,11.93
2018-06-14T02:57:39.293Z,11.87
2018-06-14T02:58:39.312Z,11.89
2018-06-14T02:59:39.425Z,11.95
2018-06-14T03:00:39.346Z,11.86
2018-06-14T03:01:39.275Z,11.88
2018-06-14T03:02:39.283Z,11.87
2018-06-14T03:03:39.297Z,11.9
2018-06-14T03:04:39.297Z,11.95
2018-06-14T03:05:39.332Z,11.94
2018-06-14T03:06:39.274Z,11.8
2018-06-14T03:07:39.323Z,11.83
2018-06-14T03:08:39.371Z,11.92
2018-06-14T03:09:39.266Z,11.82
2018-06-14T03:10:39.317Z,11.91
2018-06-14T03:11:39.277Z,11.96
2018-06-14T03:12:39.351Z,11.89
2018-06-14T03:13:39.325Z,11.9
2018-06-14T03:14:39.269Z,11.96
2018-06-14T03:15:39.365Z,11.91
2018-06-14T03:16:39.481Z,11.93
2018-06-14T03:17:39.350Z,11.89
2018-06-14T03:18:39.314Z,11.85
2018-06-14T03:19:39.510Z,11.83
2018-06-14T03:20:39.277Z,11.85
2018-06-14T03:21:39.449Z,11.8
2018-06-14T03:22:39.385Z,11.85
2018-06-14T03:23:39.299Z,11.84
2018-06-14T03:24:39.384Z,11.82
2018-06-14T03:25:39.303Z,11.8
2018-06-14T03:26:39.272Z,11.78
2018-06-14T03:27:39.287Z,11.76
2018-06-14T03:28:39.284Z,11.71
2018-06-14T03:29:39.316Z,11.85
2018-06-14T03:30:39.281Z,11.81
2018-06-14T03:31:39.289Z,11.74
2018-06-14T03:32:39.288Z,11.71
2018-06-14T03:33:39.291Z,11.8
2018-06-14T03:34:39.304Z,11.78
2018-06-14T03:35:39.294Z,11.87
2018-06-14T03:36:39.330Z,11.87
2018-06-14T03:37:39.308Z,11.9
2018-06-14T03:38:39.292Z,11.83
2018-06-14T03:39:39.310Z,11.78
2018-06-14T03:40:39.419Z,11.89
2018-06-14T03:41:39.288Z,11.79
2018-06-14T03:42:39.294Z,11.75
2018-06-14T03:43:39.311Z,11.76
2018-06-14T03:44:39.278Z,11.86
2018-06-14T03:45:39.323Z,11.78
2018-06-14T03:46:39.303Z,11.73
2018-06-14T03:47:39.314Z,11.91
2018-06-14T03:48:39.355Z,11.93
2018-06-14T03:49:39.315Z,11.91
2018-06-14T03:50:39.314Z,11.82
2018-06-14T03:51:39.442Z,11.9
2018-06-14T03:52:39.345Z,11.92
2018-06-14T03:53:39.278Z,11.88
2018-06-14T03:54:39.381Z,11.79
2018-06-14T03:55:39.329Z,11.84
2018-06-14T03:56:39.343Z,11.77
2018-06-14T03:57:39.344Z,11.78
2018-06-14T03:58:39.311Z,11.8
2018-06-14T03:59:39.359Z,11.88
2018-06-14T04:00:39.463Z,11.92
2018-06-14T04:01:39.609Z,11.89
2018-06-14T04:02:39.372Z,11.94
2018-06-14T04:03:39.408Z,11.91
2018-06-14T04:04:39.307Z,11.83
2018-06-14T04:05:39.358Z,11.91
2018-06-14T04:06:39.349Z,11.89
2018-06-14T04:07:39.311Z,11.89
2018-06-14T04:08:39.378Z,11.87
2018-06-14T04:09:39.577Z,11.91
2018-06-14T04:10:44.513Z,11.93
2018-06-14T04:11:39.363Z,11.9
2018-06-14T04:12:39.294Z,11.92
2018-06-14T04:13:39.326Z,11.9
2018-06-14T04:14:39.467Z,11.94
2018-06-14T04:15:39.308Z,11.87
2018-06-14T04:16:39.320Z,11.98
2018-06-14T04:17:39.337Z,12.1
2018-06-14T04:18:39.689Z,12.04
2018-06-14T04:19:39.350Z,11.95
2018-06-14T04:20:39.333Z,11.94
2018-06-14T04:21:39.331Z,11.89
2018-06-14T04:22:39.315Z,11.98
2018-06-14T04:23:39.303Z,11.99
2018-06-14T04:24:39.322Z,12.01
2018-06-14T04:25:39.366Z,11.89
2018-06-14T04:26:39.364Z,11.89
2018-06-14T04:27:39.362Z,11.99
2018-06-14T04:28:39.312Z,11.98
2018-06-14T04:29:39.311Z,12
2018-06-14T04:30:39.347Z,11.84
2018-06-14T04:31:39.315Z,11.89
2018-06-14T04:32:39.312Z,12.05
2018-06-14T04:33:39.330Z,11.87
2018-06-14T04:34:39.342Z,11.92
2018-06-14T04:35:39.344Z,11.94
2018-06-14T04:36:39.618Z,11.89
2018-06-14T04:37:39.357Z,11.89
2018-06-14T04:38:39.365Z,11.89
2018-06-14T04:39:39.337Z,11.83
2018-06-14T04:40:39.333Z,11.84
2018-06-14T04:41:39.342Z,11.82
2018-06-14T04:42:39.331Z,11.79
2018-06-14T04:43:39.336Z,11.81
2018-06-14T04:44:39.474Z,11.85
2018-06-14T04:45:39.342Z,11.94
2018-06-14T04:46:39.331Z,11.94
2018-06-14T04:47:39.330Z,11.95
2018-06-14T04:48:39.336Z,11.82
2018-06-14T04:49:39.341Z,11.84
2018-06-14T04:50:39.319Z,11.97
2018-06-14T04:51:39.355Z,12.01
2018-06-14T04:52:39.314Z,11.88
2018-06-14T04:53:39.348Z,11.93
2018-06-14T04:54:39.537Z,11.86
2018-06-14T04:55:39.375Z,11.92
2018-06-14T04:56:39.340Z,11.96
2018-06-14T04:57:39.373Z,11.92
2018-06-14T04:58:39.348Z,11.96
2018-06-14T04:59:39.374Z,11.95
2018-06-14T05:00:39.372Z,11.96
2018-06-14T05:01:39.338Z,11.92
2018-06-14T05:02:39.386Z,11.9
2018-06-14T05:03:39.359Z,11.91
2018-06-14T05:04:39.394Z,11.92
2018-06-14T05:05:39.336Z,11.93
2018-06-14T05:06:39.317Z,11.92
2018-06-14T05:07:39.347Z,12
2018-06-14T05:08:39.354Z,11.94
2018-06-14T05:09:39.344Z,11.95
2018-06-14T05:10:39.408Z,11.87
2018-06-14T05:11:39.372Z,11.92
2018-06-14T05:12:39.346Z,11.92
2018-06-14T05:13:39.474Z,11.88
2018-06-14T05:14:39.357Z,11.86
2018-06-14T05:15:39.359Z,11.86
2018-06-14T05:16:39.396Z,11.87
2018-06-14T05:17:39.354Z,11.89
2018-06-14T05:18:39.346Z,11.87
2018-06-14T05:19:39.488Z,11.83
2018-06-14T05:20:39.343Z,11.85
2018-06-14T05:21:39.459Z,11.86
2018-06-14T05:22:39.361Z,11.9
2018-06-14T05:23:39.402Z,11.88
2018-06-14T05:24:39.531Z,11.99
2018-06-14T05:25:39.333Z,11.97
2018-06-14T05:26:39.362Z,11.93
2018-06-14T05:27:39.492Z,12
2018-06-14T05:28:39.398Z,12.03
2018-06-14T05:29:39.611Z,11.99
2018-06-14T05:30:39.388Z,11.98
2018-06-14T05:31:39.348Z,11.98
2018-06-14T05:32:39.458Z,12.07
2018-06-14T05:33:39.353Z,12.03
2018-06-14T05:34:39.397Z,11.98
2018-06-14T05:35:39.382Z,11.99
2018-06-14T05:36:39.410Z,11.99
2018-06-14T05:37:39.406Z,12.05
2018-06-14T05:38:39.375Z,12.03
2018-06-14T05:39:39.483Z,12.03
2018-06-14T05:40:39.441Z,12.07
2018-06-14T05:41:39.383Z,12.09
2018-06-14T05:42:39.348Z,12.08
2018-06-14T05:43:39.381Z,12.12
2018-06-14T05:44:39.710Z,12.16
2018-06-14T05:45:39.374Z,12.13
2018-06-14T05:46:39.628Z,12.09
2018-06-14T05:47:39.610Z,12.12
2018-06-14T05:48:39.338Z,12.12
2018-06-14T05:49:39.374Z,12.12
2018-06-14T05:50:39.382Z,12.16
2018-06-14T05:51:39.346Z,12.12
2018-06-14T05:52:39.335Z,12.09
2018-06-14T05:53:39.365Z,12.13
2018-06-14T05:54:39.367Z,12.16
2018-06-14T05:55:39.363Z,12.11
2018-06-14T05:56:39.356Z,12.04
2018-06-14T05:57:39.461Z,12.07
2018-06-14T05:58:39.349Z,12.07
2018-06-14T05:59:39.380Z,12.02
2018-06-14T06:00:39.362Z,12
2018-06-14T06:01:39.376Z,12.06
2018-06-14T06:02:39.362Z,12.09
2018-06-14T06:03:39.341Z,12.12
2018-06-14T06:04:39.348Z,12.07
2018-06-14T06:05:39.373Z,12.08
2018-06-14T06:06:39.384Z,12.13
2018-06-14T06:07:39.367Z,12.12
2018-06-14T06:08:39.375Z,12.03
2018-06-14T06:09:39.364Z,12.09
2018-06-14T06:10:39.397Z,12.09
2018-06-14T06:11:39.431Z,11.96
2018-06-14T06:12:39.444Z,11.93
2018-06-14T06:13:39.523Z,11.96
2018-06-14T06:14:39.542Z,12.03
2018-06-14T06:15:39.391Z,12.02
2018-06-14T06:16:39.470Z,11.97
2018-06-14T06:17:39.575Z,12.02
2018-06-14T06:18:39.377Z,11.98
2018-06-14T06:19:39.475Z,12.01
2018-06-14T06:20:39.395Z,11.73
2018-06-14T06:21:39.516Z,11.85
2018-06-14T06:22:39.380Z,11.9
2018-06-14T06:23:39.401Z,11.97
2018-06-14T06:24:39.392Z,12
2018-06-14T06:25:39.412Z,11.97
2018-06-14T06:26:39.599Z,11.96
2018-06-14T06:27:39.503Z,12.04
2018-06-14T06:28:39.416Z,11.92
2018-06-14T06:29:39.471Z,11.99
2018-06-14T06:30:39.414Z,12.01
2018-06-14T06:31:39.393Z,12.01
2018-06-14T06:32:39.388Z,11.98
2018-06-14T06:33:39.538Z,11.84
2018-06-14T06:34:39.620Z,11.82
2018-06-14T06:35:39.422Z,11.95
2018-06-14T06:36:39.397Z,11.95
2018-06-14T06:37:39.388Z,11.89
2018-06-14T06:38:39.670Z,11.55
2018-06-14T06:39:39.480Z,11.72
2018-06-14T06:40:39.474Z,11.7
2018-06-14T06:41:39.374Z,11.67
2018-06-14T06:42:39.432Z,11.71
2018-06-14T06:43:40.396Z,11.79
2018-06-14T06:44:39.553Z,11.81
2018-06-14T06:45:39.607Z,11.83
2018-06-14T06:46:39.422Z,11.73
2018-06-14T06:47:39.553Z,11.59
2018-06-14T06:48:39.419Z,11.67
2018-06-14T06:49:39.396Z,11.78
2018-06-14T06:50:39.464Z,11.82
2018-06-14T06:51:39.465Z,11.6
2018-06-14T06:52:39.427Z,11.7
2018-06-14T06:53:39.384Z,11.66
2018-06-14T06:54:39.393Z,11.43
2018-06-14T06:55:39.400Z,11.66
2018-06-14T06:56:39.405Z,11.69
2018-06-14T06:57:39.395Z,11.63
2018-06-14T06:58:39.584Z,11.66
2018-06-14T06:59:39.451Z,11.53
2018-06-14T07:00:39.417Z,11.52
2018-06-14T07:01:39.409Z,11.59
2018-06-14T07:02:39.397Z,11.71
2018-06-14T07:03:39.426Z,11.63
2018-06-14T07:04:39.387Z,11.57
2018-06-14T07:05:39.397Z,11.65
2018-06-14T07:06:39.409Z,11.72
2018-06-14T07:07:39.442Z,11.7
2018-06-14T07:08:39.424Z,11.69
2018-06-14T07:09:39.391Z,11.55
2018-06-14T07:10:39.399Z,11.19
2018-06-14T07:11:39.405Z,11.22
2018-06-14T07:12:39.599Z,11.18
2018-06-14T07:13:39.444Z,11.08
2018-06-14T07:14:39.397Z,11.27
2018-06-14T07:15:39.445Z,11.16
2018-06-14T07:16:39.497Z,11.3
2018-06-14T07:17:39.454Z,11.18
2018-06-14T07:18:39.414Z,11.19
2018-06-14T07:19:39.564Z,11.28
2018-06-14T07:20:39.430Z,10.84
2018-06-14T07:21:39.800Z,10.94
2018-06-14T07:22:39.438Z,10.53
2018-06-14T07:23:39.480Z,10.57
2018-06-14T07:24:39.550Z,10.93
2018-06-14T07:25:39.429Z,11.19
2018-06-14T07:26:39.419Z,11.32
2018-06-14T07:27:39.712Z,11.23
2018-06-14T07:28:39.401Z,11.22
2018-06-14T07:29:39.376Z,11.41
2018-06-14T07:30:39.405Z,11.37
2018-06-14T07:31:39.423Z,11.35
2018-06-14T07:32:39.413Z,11.32
2018-06-14T07:33:39.494Z,11.27
2018-06-14T07:34:39.482Z,11.39
2018-06-14T07:35:39.417Z,11.29
2018-06-14T07:36:39.420Z,11.25
2018-06-14T07:37:39.431Z,11.38
2018-06-14T07:38:39.451Z,11.46
2018-06-14T07:39:39.481Z,11.44
2018-06-14T07:40:39.469Z,11.06
2018-06-14T07:41:39.484Z,11.1
2018-06-14T07:42:39.445Z,10.78
2018-06-14T07:43:39.517Z,10.46
2018-06-14T07:44:39.528Z,10.57
2018-06-14T07:45:39.480Z,10.4
2018-06-14T07:46:39.397Z,10.36
2018-06-14T07:47:39.420Z,10.58
2018-06-14T07:48:39.459Z,10.31
2018-06-14T07:49:39.478Z,10.33
2018-06-14T07:50:39.409Z,10.31
2018-06-14T07:51:39.425Z,10.46
2018-06-14T07:52:39.420Z,10.3
2018-06-14T07:53:39.433Z,10.41
2018-06-14T07:54:39.458Z,10.68
2018-06-14T07:55:39.585Z,10.7
2018-06-14T07:56:39.493Z,10.62
2018-06-14T07:57:39.482Z,10.49
2018-06-14T07:58:39.427Z,10.75
2018-06-14T07:59:39.451Z,10.51
2018-06-14T08:00:39.437Z,10.28
2018-06-14T08:01:39.419Z,10.41
2018-06-14T08:02:39.651Z,10.42
2018-06-14T08:03:39.499Z,9.89
2018-06-14T08:04:39.461Z,9.86
2018-06-14T08:05:39.445Z,9.71
2018-06-14T08:06:39.436Z,8.85
2018-06-14T08:07:39.511Z,8.63
2018-06-14T08:08:39.441Z,8.33
2018-06-14T08:09:39.439Z,8.47
2018-06-14T08:10:39.445Z,9.21
2018-06-14T08:11:39.452Z,9.12
2018-06-14T08:12:39.685Z,8.98
2018-06-14T08:13:39.462Z,8.79
2018-06-14T08:14:39.450Z,9.26
2018-06-14T08:15:39.444Z,9.24
2018-06-14T08:16:39.450Z,9.4
2018-06-14T08:17:39.424Z,9.37
2018-06-14T08:18:39.422Z,9.32
2018-06-14T08:19:39.431Z,9.66
2018-06-14T08:20:39.439Z,9.8
2018-06-14T08:21:39.496Z,9.78
2018-06-14T08:22:39.424Z,9.18
2018-06-14T08:23:39.440Z,9.43
2018-06-14T08:24:39.443Z,8.2
2018-06-14T08:25:39.455Z,7.94
2018-06-14T08:26:39.487Z,7.37
2018-06-14T08:27:39.468Z,7.93
2018-06-14T08:28:39.419Z,7.8
2018-06-14T08:29:39.480Z,8.37
2018-06-14T08:30:39.446Z,8.64
2018-06-14T08:31:39.413Z,8.11
2018-06-14T08:32:39.510Z,8.14
2018-06-14T08:33:39.431Z,8.88
2018-06-14T08:34:39.507Z,8.67
2018-06-14T08:35:39.532Z,7.89
2018-06-14T08:36:39.484Z,7.7
2018-06-14T08:37:39.476Z,7.75
2018-06-14T08:38:39.566Z,7.78
2018-06-14T08:39:39.605Z,6.78
2018-06-14T08:40:39.554Z,7.62
2018-06-14T08:41:39.664Z,7.46
2018-06-14T08:42:39.610Z,6.9
2018-06-14T08:43:39.905Z,7.56
2018-06-14T08:44:39.614Z,6.89
2018-06-14T08:45:39.526Z,6.75
2018-06-14T08:46:40.406Z,6.95
2018-06-14T08:47:39.697Z,7.55
2018-06-14T08:48:39.855Z,7.57
2018-06-14T08:49:39.653Z,7.76
2018-06-14T08:50:40.504Z,7.6
2018-06-14T08:51:39.450Z,7.4
2018-06-14T08:52:39.507Z,7.6
2018-06-14T08:53:39.497Z,8.38
2018-06-14T08:54:39.811Z,8.49
2018-06-14T08:55:39.586Z,8.65
2018-06-14T08:56:39.704Z,8.27
2018-06-14T08:57:39.475Z,8.57
2018-06-14T08:58:39.466Z,8.38
2018-06-14T08:59:39.489Z,8.39
2018-06-14T09:00:39.621Z,7.96
2018-06-14T09:01:39.479Z,8.63
2018-06-14T09:02:39.827Z,8.83
2018-06-14T09:03:39.464Z,8.48
2018-06-14T09:04:39.480Z,8.42
2018-06-14T09:05:39.632Z,8.37
2018-06-14T09:06:39.524Z,8.06
2018-06-14T09:07:39.469Z,7.69
2018-06-14T09:08:39.505Z,8.15
2018-06-14T09:09:39.533Z,7.63
2018-06-14T09:10:39.565Z,7.7
2018-06-14T09:11:39.853Z,7.16
2018-06-14T09:12:39.708Z,7.96
2018-06-14T09:13:39.566Z,7.76
2018-06-14T09:14:39.603Z,7.05
2018-06-14T09:15:39.694Z,7.66
2018-06-14T09:16:39.820Z,7.21
2018-06-14T09:17:39.495Z,7.46
2018-06-14T09:18:39.599Z,7.69
2018-06-14T09:19:39.499Z,7.56
2018-06-14T09:20:39.727Z,7.69
2018-06-14T09:21:39.511Z,7.69
2018-06-14T09:22:39.635Z,7.5
2018-06-14T09:23:39.510Z,7.56
2018-06-14T09:24:40.582Z,7.76
2018-06-14T09:25:39.539Z,7.71
2018-06-14T09:26:40.043Z,7.73
2018-06-14T09:27:40.063Z,7.72
2018-06-14T09:28:39.634Z,7.58
2018-06-14T09:29:39.567Z,7.88
2018-06-14T09:30:39.587Z,7.76
2018-06-14T09:31:39.578Z,7.65
2018-06-14T09:32:39.714Z,8.44
2018-06-14T09:33:39.539Z,8.89
2018-06-14T09:34:39.640Z,8.81
2018-06-14T09:35:39.526Z,8.67
2018-06-14T09:36:39.616Z,8.38
2018-06-14T09:37:39.501Z,8.41
2018-06-14T09:38:39.497Z,8.75
2018-06-14T09:39:39.491Z,8.88
2018-06-14T09:40:42.922Z,8.96
2018-06-14T09:41:40.278Z,9.08
2018-06-14T09:42:39.525Z,9.2
2018-06-14T09:43:39.512Z,8.33
2018-06-14T09:44:39.501Z,8.33
2018-06-14T09:45:39.557Z,8.52
2018-06-14T09:46:39.704Z,8.73
2018-06-14T09:47:39.524Z,8.9
2018-06-14T09:48:39.596Z,8.79
2018-06-14T09:49:39.542Z,8.65
2018-06-14T09:50:40.542Z,8.92
2018-06-14T09:51:39.513Z,8.77
2018-06-14T09:52:39.522Z,9.02
2018-06-14T09:53:39.499Z,9.23
2018-06-14T09:54:39.499Z,8.83
2018-06-14T09:55:39.657Z,8.92
2018-06-14T09:56:39.557Z,8.42
2018-06-14T09:57:39.528Z,9.22
2018-06-14T09:58:39.545Z,8.97
2018-06-14T09:59:39.493Z,8.75
2018-06-14T10:00:39.687Z,8.81
2018-06-14T10:01:39.522Z,8.92
2018-06-14T10:02:39.513Z,8.81
2018-06-14T10:03:39.521Z,9.07
2018-06-14T10:04:39.496Z,8.75
2018-06-14T10:05:41.669Z,8.71
2018-06-14T10:06:39.525Z,8.79
2018-06-14T10:07:39.566Z,8.65
2018-06-14T10:08:39.497Z,8.76
2018-06-14T10:09:39.537Z,8.77
2018-06-14T10:10:39.656Z,8.93
2018-06-14T10:11:39.519Z,8.41
2018-06-14T10:12:39.545Z,8.08
2018-06-14T10:13:39.535Z,8.18
2018-06-14T10:14:39.523Z,8.75
2018-06-14T10:15:39.794Z,8.86
2018-06-14T10:16:39.539Z,9.03
2018-06-14T10:17:39.569Z,8.51
2018-06-14T10:18:39.784Z,9.09
2018-06-14T10:19:39.502Z,9.05
2018-06-14T10:20:39.505Z,8.94
2018-06-14T10:21:39.807Z,9.49
2018-06-14T10:22:39.565Z,9.22
2018-06-14T10:23:39.554Z,9.1
2018-06-14T10:24:39.495Z,9.06
2018-06-14T10:25:39.661Z,9.39
2018-06-14T10:26:39.532Z,8.64
2018-06-14T10:27:39.518Z,9.03
2018-06-14T10:28:39.499Z,9.23
2018-06-14T10:29:39.635Z,8.9
2018-06-14T10:30:39.999Z,9.27
2018-06-14T10:31:39.743Z,9.07
2018-06-14T10:32:39.548Z,9.05
2018-06-14T10:33:39.549Z,8.85
2018-06-14T10:34:39.816Z,9.21
2018-06-14T10:35:39.621Z,9.16
2018-06-14T10:36:39.540Z,8.11
2018-06-14T10:37:39.539Z,8.16
2018-06-14T10:38:39.538Z,8.65
2018-06-14T10:39:39.568Z,8.94
2018-06-14T10:40:39.658Z,8.59
2018-06-14T10:41:39.522Z,8.83
2018-06-14T10:42:39.552Z,9.19
2018-06-14T10:43:39.511Z,8.97
2018-06-14T10:44:39.531Z,9.08
2018-06-14T10:45:39.724Z,8.73
2018-06-14T10:46:39.730Z,8.19
2018-06-14T10:47:39.526Z,8.82
2018-06-14T10:48:39.925Z,8.99
2018-06-14T10:49:39.523Z,8.87
2018-06-14T10:50:39.520Z,8.73
2018-06-14T10:51:39.741Z,8.85
2018-06-14T10:52:39.554Z,8.9
2018-06-14T10:53:39.643Z,8.49
2018-06-14T10:54:39.517Z,8.93
2018-06-14T10:55:39.664Z,8.78
2018-06-14T10:56:39.666Z,9.18
2018-06-14T10:57:39.779Z,8.7
2018-06-14T10:58:39.777Z,8.82
2018-06-14T10:59:39.532Z,8.11
2018-06-14T11:00:39.697Z,8.15
2018-06-14T11:01:39.705Z,8.73
2018-06-14T11:02:39.539Z,8.88
2018-06-14T11:03:39.552Z,8.69
2018-06-14T11:04:39.702Z,9.02
2018-06-14T11:05:39.622Z,9.11
2018-06-14T11:06:39.578Z,9.07
2018-06-14T11:07:39.561Z,9.21
2018-06-14T11:08:39.590Z,8.09
2018-06-14T11:09:39.562Z,7.66
2018-06-14T11:10:39.779Z,8.29
2018-06-14T11:11:39.532Z,8.64
2018-06-14T11:12:39.557Z,8.41
2018-06-14T11:13:39.527Z,8.61
2018-06-14T11:14:39.520Z,8.55
2018-06-14T11:15:39.691Z,8.42
2018-06-14T11:16:39.693Z,8.61
2018-06-14T11:17:39.871Z,8.58
2018-06-14T11:18:39.542Z,8.88
2018-06-14T11:19:39.553Z,8.73
2018-06-14T11:20:39.734Z,8.46
2018-06-14T11:21:39.548Z,8.72
2018-06-14T11:22:39.597Z,8.24
2018-06-14T11:23:39.710Z,8.3
2018-06-14T11:24:39.558Z,8.16
2018-06-14T11:25:39.637Z,8.19
2018-06-14T11:26:39.594Z,8.52
2018-06-14T11:27:39.765Z,8.56
2018-06-14T11:28:39.707Z,8.51
2018-06-14T11:29:39.728Z,8.54
2018-06-14T11:30:39.678Z,8.74
2018-06-14T11:31:39.603Z,8.86
2018-06-14T11:32:39.547Z,8.4
2018-06-14T11:33:39.583Z,8.37
2018-06-14T11:34:39.594Z,8.47
2018-06-14T11:35:39.714Z,8.36
2018-06-14T11:36:39.545Z,8.3
2018-06-14T11:37:39.545Z,8.27
2018-06-14T11:38:39.571Z,8.18
2018-06-14T11:39:39.894Z,8.19
2018-06-14T11:40:39.761Z,8.09
2018-06-14T11:41:39.642Z,8.12
2018-06-14T11:42:39.572Z,8.46
2018-06-14T11:43:39.639Z,8.56
2018-06-14T11:44:39.778Z,8.67
2018-06-14T11:45:39.568Z,8
2018-06-14T11:46:39.605Z,8.19
2018-06-14T11:47:39.609Z,8.12
2018-06-14T11:48:39.558Z,7.85
2018-06-14T11:49:39.545Z,7.85
2018-06-14T11:50:39.730Z,8.08
2018-06-14T11:51:39.607Z,8.35
2018-06-14T11:52:39.569Z,8.53
2018-06-14T11:53:39.557Z,8.43
2018-06-14T11:54:39.652Z,8.52
2018-06-14T11:55:39.578Z,8.62
2018-06-14T11:56:39.578Z,8.65
2018-06-14T11:57:39.634Z,8.65
2018-06-14T11:58:39.566Z,8.37
2018-06-14T11:59:39.574Z,8.61
2018-06-14T12:00:39.699Z,8.55
2018-06-14T12:01:39.752Z,8.23
2018-06-14T12:02:39.565Z,7.93
2018-06-14T12:03:39.558Z,8.07
2018-06-14T12:04:39.602Z,8.39
2018-06-14T12:05:39.726Z,8.75
2018-06-14T12:06:39.618Z,9.09
2018-06-14T12:07:39.602Z,9.22
2018-06-14T12:08:39.573Z,8.31
2018-06-14T12:09:39.599Z,8.07
2018-06-14T12:10:39.595Z,7.67
2018-06-14T12:11:39.635Z,8.09
2018-06-14T12:12:39.601Z,8.33
2018-06-14T12:13:39.600Z,8.01
2018-06-14T12:14:39.627Z,8.31
2018-06-14T12:15:39.668Z,7.88
2018-06-14T12:16:39.609Z,8.12
2018-06-14T12:17:39.617Z,8.3
2018-06-14T12:18:39.595Z,8.17
2018-06-14T12:19:39.596Z,8.3
2018-06-14T12:20:39.734Z,8.72
2018-06-14T12:21:39.596Z,8.77
2018-06-14T12:22:39.664Z,8.41
2018-06-14T12:23:39.583Z,8.75
2018-06-14T12:24:39.584Z,9.21
2018-06-14T12:25:39.600Z,9.06
2018-06-14T12:26:39.630Z,8.97
2018-06-14T12:27:39.633Z,8.96
2018-06-14T12:28:39.614Z,8.96
2018-06-14T12:29:39.687Z,9.23
2018-06-14T12:30:39.716Z,8.81
2018-06-14T12:31:39.874Z,9.07
2018-06-14T12:32:39.647Z,9.03
2018-06-14T12:33:39.712Z,8.36
2018-06-14T12:34:39.621Z,8.38
2018-06-14T12:35:39.601Z,8.47
2018-06-14T12:36:39.623Z,8.29
2018-06-14T12:37:40.031Z,8.39
2018-06-14T12:38:39.714Z,8.23
2018-06-14T12:39:39.621Z,8.3
2018-06-14T12:40:39.761Z,8.55
2018-06-14T12:41:39.774Z,8.56
2018-06-14T12:42:39.607Z,8.7
2018-06-14T12:43:39.626Z,8.59
2018-06-14T12:44:39.737Z,8.42
2018-06-14T12:45:39.807Z,8.32
2018-06-14T12:46:39.685Z,8.4
2018-06-14T12:47:39.673Z,8.85
2018-06-14T12:48:39.757Z,8.35
2018-06-14T12:49:39.898Z,8.2
2018-06-14T12:50:39.943Z,8.28
2018-06-14T12:51:39.874Z,8.32
2018-06-14T12:52:39.607Z,8.23
2018-06-14T12:53:39.626Z,8.2
2018-06-14T12:54:39.746Z,8.11
2018-06-14T12:55:39.700Z,8
2018-06-14T12:56:39.591Z,8
2018-06-14T12:57:39.713Z,7.9
2018-06-14T12:58:39.725Z,8.29
2018-06-14T12:59:39.599Z,8.39
2018-06-14T13:00:39.707Z,8.75
2018-06-14T13:01:39.806Z,8.81
2018-06-14T13:02:41.762Z,8.78
2018-06-14T13:03:39.757Z,8.93
2018-06-14T13:04:39.845Z,8.91
2018-06-14T13:05:39.746Z,8.34